createdAt,value
2022-12-24T00:01:36.665Z,94580.56
2022-12-24T00:04:06.731Z,94572.59
2022-12-24T00:06:35.387Z,94603.78
2022-12-24T00:09:04.549Z,94556.81
2022-12-24T00:11:32.971Z,94584.13
2022-12-24T00:14:01.428Z,94580.34
2022-12-24T00:16:30.174Z,94582.00
2022-12-24T00:18:58.759Z,94568.31
2022-12-24T00:21:28.613Z,94591.84
2022-12-24T00:23:56.919Z,94597.06
2022-12-24T00:26:25.324Z,94600.81
2022-12-24T00:28:53.684Z,94571.06
2022-12-24T00:31:22.095Z,94593.06
2022-12-24T00:33:51.413Z,94594.13
2022-12-24T00:36:20.949Z,94609.88
2022-12-24T00:38:51.380Z,94604.38
2022-12-24T00:41:26.254Z,94608.03
2022-12-24T00:43:55.572Z,94607.84
2022-12-24T00:46:24.497Z,94599.81
2022-12-24T00:48:53.103Z,94616.31
2022-12-24T00:51:22.665Z,94617.94
2022-12-24T00:53:53.366Z,94617.53
2022-12-24T00:56:22.053Z,94612.28
2022-12-24T00:58:50.949Z,94619.31
2022-12-24T01:01:19.875Z,94619.59
2022-12-24T01:03:48.692Z,94615.44
2022-12-24T01:06:18.516Z,94621.44
2022-12-24T01:08:47.109Z,94618.88
2022-12-24T01:11:17.201Z,94646.22
2022-12-24T01:13:45.698Z,94642.44
2022-12-24T01:16:19.244Z,94641.06
2022-12-24T01:18:47.844Z,94646.66
2022-12-24T01:21:16.686Z,94654.22
2022-12-24T01:23:45.649Z,94665.56
2022-12-24T01:26:14.179Z,94664.56
2022-12-24T01:28:44.275Z,94664.88
2022-12-24T01:31:14.325Z,94671.41
2022-12-24T01:33:43.289Z,94679.94
2022-12-24T01:36:12.349Z,94670.94
2022-12-24T01:38:41.255Z,94667.88
2022-12-24T01:41:32.255Z,94671.47
2022-12-24T01:44:20.946Z,94681.69
2022-12-24T01:46:51.759Z,94686.72
2022-12-24T01:49:20.651Z,94677.63
2022-12-24T01:51:53.434Z,94679.31
2022-12-24T01:54:25.737Z,94681.97
2022-12-24T01:56:57.298Z,94693.84
2022-12-24T01:59:27.465Z,94700.44
2022-12-24T02:01:56.418Z,94698.63
2022-12-24T02:04:33.665Z,94696.53
2022-12-24T02:07:02.400Z,94690.41
2022-12-24T02:09:31.396Z,94700.81
2022-12-24T02:12:00.753Z,94701.97
2022-12-24T02:14:32.500Z,94710.47
2022-12-24T02:17:07.065Z,94710.47
2022-12-24T02:20:10.309Z,94715.84
2022-12-24T02:23:00.009Z,94630.09
2022-12-24T02:25:45.512Z,94720.44
2022-12-24T02:28:27.078Z,94698.19
2022-12-24T02:31:02.108Z,94715.84
2022-12-24T02:33:34.596Z,94722.16
2022-12-24T02:36:08.176Z,94743.78
2022-12-24T02:38:42.927Z,94743.16
2022-12-24T02:41:18.213Z,94746.78
2022-12-24T02:43:48.826Z,94743.00
2022-12-24T02:46:22.539Z,94754.00
2022-12-24T02:48:51.010Z,94742.16
2022-12-24T02:51:24.244Z,94731.69
2022-12-24T02:53:53.187Z,94723.09
2022-12-24T02:56:47.442Z,94753.25
2022-12-24T02:59:30.993Z,94762.88
2022-12-24T03:02:11.391Z,94761.53
2022-12-24T03:04:50.094Z,94760.94
2022-12-24T03:07:22.191Z,94771.69
2022-12-24T03:10:04.862Z,94769.59
2022-12-24T03:12:37.523Z,94773.41
2022-12-24T03:15:08.628Z,94783.00
2022-12-24T03:17:40.788Z,94760.41
2022-12-24T03:20:12.442Z,94788.44
2022-12-24T03:22:41.520Z,94788.47
2022-12-24T03:25:10.335Z,94798.94
2022-12-24T03:27:40.418Z,94792.44
2022-12-24T03:30:14.466Z,94810.34
2022-12-24T03:32:44.332Z,94807.47
2022-12-24T03:35:13.157Z,94817.94
2022-12-24T03:37:41.935Z,94825.97
2022-12-24T03:40:11.233Z,94834.50
2022-12-24T03:42:39.624Z,94838.53
2022-12-24T03:45:09.076Z,94831.69
2022-12-24T03:47:37.873Z,94835.38
2022-12-24T03:50:09.123Z,94842.59
2022-12-24T03:52:37.791Z,94821.25
2022-12-24T03:55:06.934Z,94844.59
2022-12-24T03:57:35.266Z,94837.38
2022-12-24T04:00:03.809Z,94830.38
2022-12-24T04:02:32.452Z,94835.91
2022-12-24T04:05:00.931Z,94841.50
2022-12-24T04:07:30.786Z,94852.88
2022-12-24T04:09:59.104Z,94863.31
2022-12-24T04:12:27.646Z,94860.81
2022-12-24T04:14:55.946Z,94864.00
2022-12-24T04:17:24.261Z,94877.50
2022-12-24T04:19:52.537Z,94867.34
2022-12-24T04:22:20.846Z,94875.94
2022-12-24T04:24:50.586Z,94873.44
2022-12-24T04:27:19.499Z,94840.59
2022-12-24T04:29:47.958Z,94882.03
2022-12-24T04:32:16.349Z,94875.13
2022-12-24T04:34:44.764Z,94886.91
2022-12-24T04:37:13.247Z,94886.13
2022-12-24T04:39:41.676Z,94881.81
2022-12-24T04:42:12.566Z,94881.78
2022-12-24T04:44:40.925Z,94897.91
2022-12-24T04:47:10.876Z,94900.56
2022-12-24T04:49:39.973Z,94900.81
2022-12-24T04:52:08.369Z,94895.22
2022-12-24T04:54:37.096Z,94886.66
2022-12-24T04:57:05.601Z,94900.31
2022-12-24T04:59:35.587Z,94909.69
2022-12-24T05:02:04.259Z,94907.28
2022-12-24T05:04:32.802Z,94894.44
2022-12-24T05:07:01.085Z,94912.91
2022-12-24T05:09:29.561Z,94911.31
2022-12-24T05:11:57.872Z,94919.59
2022-12-24T05:14:26.270Z,94931.13
2022-12-24T05:16:56.195Z,94947.75
2022-12-24T05:19:24.640Z,94933.25
2022-12-24T05:22:06.805Z,94936.75
2022-12-24T05:24:51.776Z,94940.78
2022-12-24T05:27:20.210Z,94936.72
2022-12-24T05:29:48.552Z,94925.78
2022-12-24T05:32:18.340Z,94937.03
2022-12-24T05:34:46.661Z,94944.25
2022-12-24T05:37:15.135Z,94962.47
2022-12-24T05:39:43.497Z,94964.63
2022-12-24T05:42:11.860Z,94962.72
2022-12-24T05:44:40.230Z,94961.13
2022-12-24T05:47:08.476Z,94947.75
2022-12-24T05:49:38.283Z,94963.28
2022-12-24T05:52:06.717Z,94975.59
2022-12-24T05:54:35.099Z,94970.78
2022-12-24T05:57:03.700Z,94971.28
2022-12-24T05:59:32.302Z,94974.25
2022-12-24T06:02:00.827Z,94989.53
2022-12-24T06:04:29.706Z,94979.88
2022-12-24T06:06:59.797Z,94984.19
2022-12-24T06:09:28.248Z,94979.34
2022-12-24T06:11:56.536Z,94998.38
2022-12-24T06:14:24.929Z,94995.97
2022-12-24T06:16:53.658Z,94993.28
2022-12-24T06:19:22.141Z,94978.03
2022-12-24T06:21:50.404Z,94989.53
2022-12-24T06:24:20.195Z,94995.16
2022-12-24T06:26:48.444Z,94993.81
2022-12-24T06:29:16.843Z,95008.28
2022-12-24T06:31:45.265Z,94990.06
2022-12-24T06:34:13.604Z,94986.56
2022-12-24T06:36:41.963Z,95027.03
2022-12-24T06:39:10.255Z,95009.91
2022-12-24T06:41:40.190Z,95022.75
2022-12-24T06:44:08.494Z,95025.44
2022-12-24T06:46:36.871Z,95023.28
2022-12-24T06:49:05.329Z,95024.91
2022-12-24T06:51:33.999Z,95023.28
2022-12-24T06:54:02.413Z,95035.34
2022-12-24T06:56:30.812Z,95034.28
2022-12-24T06:59:05.363Z,95006.13
2022-12-24T07:01:34.191Z,95042.03
2022-12-24T07:04:02.604Z,95057.56
2022-12-24T07:06:32.211Z,95061.56
2022-12-24T07:09:00.757Z,95058.09
2022-12-24T07:11:29.232Z,95060.78
2022-12-24T07:13:57.677Z,95070.16
2022-12-24T07:16:27.578Z,95078.75
2022-12-24T07:18:55.898Z,95076.63
2022-12-24T07:21:24.300Z,95075.28
2022-12-24T07:23:52.585Z,95086.00
2022-12-24T07:26:21.086Z,95089.22
2022-12-24T07:28:49.563Z,95078.47
2022-12-24T07:31:18.010Z,95091.34
2022-12-24T07:33:47.879Z,95095.13
2022-12-24T07:36:20.931Z,95097.81
2022-12-24T07:38:49.394Z,95079.28
2022-12-24T07:41:17.811Z,95096.19
2022-12-24T07:43:46.192Z,95098.84
2022-12-24T07:46:14.808Z,95104.78
2022-12-24T07:48:43.266Z,95087.06
2022-12-24T07:51:13.001Z,95102.91
2022-12-24T07:53:47.748Z,95106.91
2022-12-24T07:56:16.505Z,95120.84
2022-12-24T07:58:44.935Z,95130.50
2022-12-24T08:01:13.592Z,95137.75
2022-12-24T08:03:42.141Z,95141.75
2022-12-24T08:06:12.986Z,95145.50
2022-12-24T08:08:41.289Z,95132.38
2022-12-24T08:11:09.929Z,95141.75
2022-12-24T08:13:38.548Z,95146.63
2022-12-24T08:16:07.742Z,95151.41
2022-12-24T08:18:36.240Z,95148.47
2022-12-24T08:21:04.917Z,95111.47
2022-12-24T08:23:34.767Z,95134.78
2022-12-24T08:26:03.390Z,95147.41
2022-12-24T08:28:31.736Z,95165.34
2022-12-24T08:31:01.106Z,95169.16
2022-12-24T08:33:29.544Z,95168.59
2022-12-24T08:35:59.173Z,95159.47
2022-12-24T08:38:27.484Z,95190.03
2022-12-24T08:40:58.123Z,95180.66
2022-12-24T08:43:27.081Z,95181.22
2022-12-24T08:45:55.630Z,95185.78
2022-12-24T08:48:24.083Z,95189.50
2022-12-24T08:50:52.555Z,95183.09
2022-12-24T08:53:20.895Z,95197.84
2022-12-24T08:55:55.759Z,95199.19
2022-12-24T08:58:26.301Z,95204.53
2022-12-24T09:00:54.836Z,95203.75
2022-12-24T09:03:27.298Z,95200.25
2022-12-24T09:05:56.732Z,95219.59
2022-12-24T09:08:25.066Z,95214.75
2022-12-24T09:10:53.624Z,95226.56
2022-12-24T09:13:21.990Z,95234.63
2022-12-24T09:15:56.992Z,95234.88
2022-12-24T09:18:25.625Z,95250.16
2022-12-24T09:21:00.308Z,95236.75
2022-12-24T09:23:28.785Z,95249.34
2022-12-24T09:25:57.574Z,95244.78
2022-12-24T09:28:26.211Z,95244.25
2022-12-24T09:31:01.029Z,95249.38
2022-12-24T09:33:30.334Z,95250.72
2022-12-24T09:35:59.652Z,95252.59
2022-12-24T09:38:28.381Z,95254.47
2022-12-24T09:40:57.507Z,95226.00
2022-12-24T09:43:27.662Z,95261.44
2022-12-24T09:46:10.037Z,95260.09
2022-12-24T09:48:43.249Z,95263.03
2022-12-24T09:51:13.537Z,95270.56
2022-12-24T09:53:49.845Z,95261.69
2022-12-24T09:56:22.705Z,95267.34
2022-12-24T09:58:56.169Z,95250.69
2022-12-24T10:01:26.767Z,95268.94
2022-12-24T10:03:55.395Z,95270.03
2022-12-24T10:06:29.443Z,95280.50
2022-12-24T10:09:09.052Z,95296.59
2022-12-24T10:11:48.088Z,95295.53
2022-12-24T10:14:40.734Z,95301.44
2022-12-24T10:17:28.139Z,95288.56
2022-12-24T10:20:21.478Z,95297.47
2022-12-24T10:22:57.394Z,95293.69
2022-12-24T10:25:30.919Z,95259.81
2022-12-24T10:28:02.801Z,95292.59
2022-12-24T10:30:32.045Z,95297.97
2022-12-24T10:33:02.181Z,95303.88
2022-12-24T10:35:33.842Z,95302.28
2022-12-24T10:38:02.323Z,95296.38
2022-12-24T10:40:36.922Z,95304.72
2022-12-24T10:43:15.379Z,95294.75
2022-12-24T10:45:48.090Z,95300.13
2022-12-24T10:48:25.520Z,95273.84
2022-12-24T10:50:58.151Z,95293.69
2022-12-24T10:53:35.505Z,95284.00
2022-12-24T10:56:06.574Z,95300.16
2022-12-24T10:58:35.919Z,95317.03
2022-12-24T11:01:05.769Z,95316.50
2022-12-24T11:03:38.265Z,95324.31
2022-12-24T11:06:10.358Z,95328.59
2022-12-24T11:08:41.075Z,95330.47
2022-12-24T11:11:11.377Z,95336.94
2022-12-24T11:13:42.293Z,95324.56
2022-12-24T11:16:20.107Z,95334.78
2022-12-24T11:18:52.582Z,95335.31
2022-12-24T11:21:24.577Z,95342.03
2022-12-24T11:23:56.736Z,95342.03
2022-12-24T11:26:27.136Z,95332.38
2022-12-24T11:29:13.539Z,95340.94
2022-12-24T11:31:43.009Z,95345.50
2022-12-24T11:34:29.810Z,95347.16
2022-12-24T11:37:14.975Z,95351.69
2022-12-24T11:39:49.052Z,95355.47
2022-12-24T11:42:37.184Z,95354.38
2022-12-24T11:45:09.131Z,95345.25
2022-12-24T11:47:39.289Z,95345.53
2022-12-24T11:50:30.500Z,95346.84
2022-12-24T11:53:07.118Z,95326.44
2022-12-24T11:55:46.405Z,95354.94
2022-12-24T11:58:24.162Z,95359.75
2022-12-24T12:00:54.141Z,95337.75
2022-12-24T12:03:33.992Z,95292.88
2022-12-24T12:06:08.868Z,95350.88
2022-12-24T12:08:39.009Z,95341.72
2022-12-24T12:11:13.515Z,95340.66
2022-12-24T12:13:45.352Z,95322.13
2022-12-24T12:16:21.888Z,95344.66
2022-12-24T12:18:57.178Z,95343.59
2022-12-24T12:21:39.765Z,95313.53
2022-12-24T12:24:14.395Z,95343.53
2022-12-24T12:26:44.397Z,95344.97
2022-12-24T12:29:27.002Z,95341.47
2022-12-24T12:31:58.990Z,95352.47
2022-12-24T12:34:34.351Z,95358.16
2022-12-24T12:37:14.483Z,95337.72
2022-12-24T12:39:43.954Z,95351.69
2022-12-24T12:42:19.569Z,95347.91
2022-12-24T12:45:01.672Z,95357.59
2022-12-24T12:48:02.307Z,95366.19
2022-12-24T12:50:34.907Z,95356.28
2022-12-24T12:53:32.086Z,95380.16
2022-12-24T12:56:11.429Z,95373.44
2022-12-24T12:58:45.340Z,95351.69
2022-12-24T13:01:23.092Z,95295.28
2022-12-24T13:04:33.774Z,95369.97
2022-12-24T13:07:38.056Z,95378.81
2022-12-24T13:10:53.014Z,95368.34
2022-12-24T13:13:50.184Z,95386.88
2022-12-24T13:16:49.293Z,95382.88
2022-12-24T13:19:38.278Z,95380.16
2022-12-24T13:22:15.619Z,95387.16
2022-12-24T13:24:52.377Z,95397.91
2022-12-24T13:27:27.650Z,95396.84
2022-12-24T13:30:02.199Z,95403.00
2022-12-24T13:32:49.931Z,95404.34
2022-12-24T13:35:38.961Z,95407.84
2022-12-24T13:38:46.153Z,95407.03
2022-12-24T13:41:41.816Z,95399.50
2022-12-24T13:44:36.252Z,95407.28
2022-12-24T13:47:31.595Z,95404.59
2022-12-24T13:50:22.019Z,95402.16
2022-12-24T13:52:53.646Z,95404.59
2022-12-24T13:55:22.867Z,95401.66
2022-12-24T13:58:00.202Z,95416.69
2022-12-24T14:00:39.269Z,95406.22
2022-12-24T14:03:20.394Z,95420.72
2022-12-24T14:05:51.993Z,95408.66
2022-12-24T14:08:31.282Z,95413.50
2022-12-24T14:11:06.124Z,95396.25
2022-12-24T14:14:10.029Z,95420.19
2022-12-24T14:16:48.222Z,95439.78
2022-12-24T14:19:20.573Z,95415.06
2022-12-24T14:21:56.897Z,95436.56
2022-12-24T14:24:28.544Z,95430.66
2022-12-24T14:27:02.118Z,95439.25
2022-12-24T14:29:33.663Z,95454.28
2022-12-24T14:32:04.902Z,95447.81
2022-12-24T14:34:33.745Z,95459.69
2022-12-24T14:37:05.984Z,95457.00
2022-12-24T14:39:37.384Z,95450.53
2022-12-24T14:42:19.736Z,95454.44
2022-12-24T14:44:57.629Z,95463.28
2022-12-24T14:47:36.054Z,95469.19
2022-12-24T14:50:30.095Z,95383.13
2022-12-24T14:53:06.404Z,95466.50
2022-12-24T14:55:41.848Z,95463.75
2022-12-24T14:58:24.291Z,95453.03
2022-12-24T15:00:53.791Z,95478.28
2022-12-24T15:03:26.168Z,95476.94
2022-12-24T15:05:56.847Z,95469.13
2022-12-24T15:08:32.313Z,95480.38
2022-12-24T15:11:07.445Z,95476.13
2022-12-24T15:13:38.468Z,95473.44
2022-12-24T15:16:09.963Z,95432.50
2022-12-24T15:18:44.944Z,95478.19
2022-12-24T15:21:19.937Z,95477.13
2022-12-24T15:23:50.387Z,95464.50
2022-12-24T15:26:25.126Z,95472.28
2022-12-24T15:29:01.965Z,95484.63
2022-12-24T15:31:32.432Z,95486.19
2022-12-24T15:34:02.338Z,95500.72
2022-12-24T15:36:34.344Z,95490.47
2022-12-24T15:39:07.198Z,95470.78
2022-12-24T15:42:00.705Z,95499.34
2022-12-24T15:44:30.091Z,95502.53
2022-12-24T15:47:01.530Z,95512.25
2022-12-24T15:49:34.169Z,95511.16
2022-12-24T15:52:07.790Z,95514.19
2022-12-24T15:54:36.342Z,95501.75
2022-12-24T15:57:15.541Z,95524.31
2022-12-24T15:59:44.287Z,95518.16
2022-12-24T16:02:41.828Z,95520.03
2022-12-24T16:05:32.725Z,95502.28
2022-12-24T16:08:17.074Z,95492.06
2022-12-24T16:10:48.672Z,95503.69
2022-12-24T16:13:20.605Z,95512.25
2022-12-24T16:15:54.687Z,95514.41
2022-12-24T16:18:28.680Z,95501.19
2022-12-24T16:20:58.830Z,95534.00
2022-12-24T16:23:31.075Z,95529.69
2022-12-24T16:26:00.740Z,95532.91
2022-12-24T16:28:29.142Z,95537.75
2022-12-24T16:30:58.176Z,95536.91
2022-12-24T16:33:26.637Z,95541.94
2022-12-24T16:35:55.251Z,95543.00
2022-12-24T16:38:25.500Z,95523.50
2022-12-24T16:40:53.869Z,95567.59
2022-12-24T16:43:39.636Z,95555.75
2022-12-24T16:46:09.234Z,95543.81
2022-12-24T16:48:39.429Z,95543.25
2022-12-24T16:51:07.798Z,95571.72
2022-12-24T16:53:37.823Z,95572.22
2022-12-24T16:56:07.551Z,95571.16
2022-12-24T16:58:36.827Z,95578.56
2022-12-24T17:01:10.423Z,95577.53
2022-12-24T17:03:38.706Z,95578.38
2022-12-24T17:06:09.506Z,95580.06
2022-12-24T17:08:39.357Z,95588.66
2022-12-24T17:11:07.739Z,95577.94
2022-12-24T17:13:36.056Z,95569.53
2022-12-24T17:16:04.868Z,95585.72
2022-12-24T17:18:33.235Z,95571.94
2022-12-24T17:21:02.596Z,95590.81
2022-12-24T17:23:31.361Z,95590.50
2022-12-24T17:26:01.306Z,95559.13
2022-12-24T17:28:29.705Z,95567.09
2022-12-24T17:30:59.179Z,95610.84
2022-12-24T17:33:27.856Z,95609.78
2022-12-24T17:35:56.236Z,95594.00
2022-12-24T17:38:24.561Z,95593.84
2022-12-24T17:40:53.000Z,95607.88
2022-12-24T17:43:22.890Z,95608.91
2022-12-24T17:45:51.162Z,95604.59
2022-12-24T17:48:19.539Z,95605.41
2022-12-24T17:50:47.864Z,95599.56
2022-12-24T17:53:16.324Z,95595.00
2022-12-24T17:55:45.157Z,95598.25
2022-12-24T17:58:15.303Z,95591.78
2022-12-24T18:00:47.399Z,95591.22
2022-12-24T18:03:15.841Z,95603.00
2022-12-24T18:05:44.341Z,95597.66
2022-12-24T18:08:12.762Z,95611.88
2022-12-24T18:10:41.287Z,95584.72
2022-12-24T18:13:15.710Z,95613.25
2022-12-24T18:15:49.127Z,95614.81
2022-12-24T18:18:17.681Z,95600.38
2022-12-24T18:20:47.110Z,95604.09
2022-12-24T18:23:15.645Z,95619.09
2022-12-24T18:25:44.078Z,95617.41
2022-12-24T18:28:12.413Z,95617.66
2022-12-24T18:30:42.261Z,95573.38
2022-12-24T18:33:12.197Z,95622.81
2022-12-24T18:35:40.484Z,95618.97
2022-12-24T18:38:08.867Z,95626.75
2022-12-24T18:40:38.496Z,95629.19
2022-12-24T18:43:06.874Z,95618.78
2022-12-24T18:45:35.338Z,95617.38
2022-12-24T18:48:04.035Z,95572.50
2022-12-24T18:50:33.728Z,95612.19
2022-12-24T18:53:02.298Z,95610.50
2022-12-24T18:55:30.689Z,95618.53
2022-12-24T18:57:59.213Z,95599.91
2022-12-24T19:00:27.642Z,95596.56
2022-12-24T19:02:56.163Z,95606.25
2022-12-24T19:05:24.471Z,95600.22
2022-12-24T19:07:54.463Z,95611.56
2022-12-24T19:10:22.855Z,95615.25
2022-12-24T19:12:51.505Z,95624.31
2022-12-24T19:15:20.066Z,95593.09
2022-12-24T19:17:48.447Z,95639.25
2022-12-24T19:20:17.022Z,95641.88
2022-12-24T19:22:45.442Z,95643.66
2022-12-24T19:25:15.316Z,95647.09
2022-12-24T19:27:43.624Z,95644.81
2022-12-24T19:30:13.530Z,95652.78
2022-12-24T19:32:41.906Z,95654.59
2022-12-24T19:35:10.960Z,95646.78
2022-12-24T19:37:39.465Z,95616.69
2022-12-24T19:40:09.746Z,95650.69
2022-12-24T19:42:39.566Z,95629.34
2022-12-24T19:45:08.814Z,95660.94
2022-12-24T19:47:37.097Z,95667.00
2022-12-24T19:50:06.150Z,95646.19
2022-12-24T19:52:34.586Z,95679.56
2022-12-24T19:55:02.853Z,95672.50
2022-12-24T19:57:31.208Z,95677.28
2022-12-24T20:00:00.914Z,95681.00
2022-12-24T20:02:29.617Z,95683.59
2022-12-24T20:04:58.193Z,95696.41
2022-12-24T20:07:26.707Z,95684.09
2022-12-24T20:09:55.161Z,95680.53
2022-12-24T20:12:23.650Z,95685.72
2022-12-24T20:14:51.920Z,95686.75
2022-12-24T20:17:21.868Z,95693.19
2022-12-24T20:19:50.144Z,95700.13
2022-12-24T20:22:18.540Z,95692.22
2022-12-24T20:24:46.856Z,95693.59
2022-12-24T20:27:15.198Z,95685.88
2022-12-24T20:29:43.495Z,95678.44
2022-12-24T20:32:12.329Z,95664.41
2022-12-24T20:34:42.111Z,95687.00
2022-12-24T20:37:10.510Z,95679.25
2022-12-24T20:39:38.977Z,95677.94
2022-12-24T20:42:07.480Z,95672.00
2022-12-24T20:44:35.795Z,95691.41
2022-12-24T20:47:04.210Z,95656.06
2022-12-24T20:49:32.540Z,95679.88
2022-12-24T20:52:02.300Z,95684.41
2022-12-24T20:54:30.595Z,95675.66
2022-12-24T20:56:59.212Z,95646.50
2022-12-24T20:59:27.622Z,95666.78
2022-12-24T21:01:56.210Z,95676.16
2022-12-24T21:04:24.708Z,95683.38
2022-12-24T21:06:53.194Z,95686.03
2022-12-24T21:09:22.919Z,95699.69
2022-12-24T21:12:08.397Z,95690.56
2022-12-24T21:14:36.732Z,95721.84
2022-12-24T21:17:06.556Z,95709.06
2022-12-24T21:19:36.657Z,95708.75
2022-12-24T21:22:05.000Z,95708.97
2022-12-24T21:24:35.019Z,95700.94
2022-12-24T21:27:03.360Z,95674.22
2022-12-24T21:29:31.597Z,95709.28
2022-12-24T21:31:59.963Z,95712.31
2022-12-24T21:34:28.330Z,95710.50
2022-12-24T21:36:56.665Z,95701.19
2022-12-24T21:39:25.124Z,95706.47
2022-12-24T21:41:54.911Z,95643.25
2022-12-24T21:44:23.283Z,95710.38
2022-12-24T21:46:51.620Z,95716.19
2022-12-24T21:49:37.035Z,95714.34
2022-12-24T21:52:06.022Z,95691.88
2022-12-24T21:54:33.357Z,95721.06
2022-12-24T21:57:23.240Z,95727.03
2022-12-24T21:59:53.677Z,95721.31
2022-12-24T22:02:26.810Z,95688.97
2022-12-24T22:04:55.643Z,95698.19
2022-12-24T22:07:40.397Z,95723.50
2022-12-24T22:10:27.285Z,95732.06
2022-12-24T22:12:57.589Z,95712.78
2022-12-24T22:15:26.003Z,95716.19
2022-12-24T22:17:54.481Z,95733.34
2022-12-24T22:20:22.893Z,95726.22
2022-12-24T22:22:51.411Z,95729.13
2022-12-24T22:25:19.872Z,95726.84
2022-12-24T22:27:48.331Z,95722.47
2022-12-24T22:30:18.103Z,95740.97
2022-12-24T22:32:46.446Z,95724.66
2022-12-24T22:35:14.960Z,95725.22
2022-12-24T22:37:43.296Z,95701.59
2022-12-24T22:40:12.468Z,95732.44
2022-12-24T22:42:41.554Z,95727.34
2022-12-24T22:45:15.676Z,95733.19
2022-12-24T22:47:48.550Z,95732.88
2022-12-24T22:50:16.955Z,95733.41
2022-12-24T22:52:45.365Z,95725.72
2022-12-24T22:55:13.736Z,95740.97
2022-12-24T22:57:42.068Z,95739.09
2022-12-24T23:00:15.506Z,95741.53
2022-12-24T23:02:44.656Z,95743.09
2022-12-24T23:05:16.365Z,95749.56
2022-12-24T23:07:44.814Z,95756.78
2022-12-24T23:10:13.106Z,95768.53
2022-12-24T23:12:58.540Z,95741.00
2022-12-24T23:15:26.951Z,95753.31
2022-12-24T23:17:55.292Z,95754.19
2022-12-24T23:20:24.965Z,95753.94
2022-12-24T23:22:53.419Z,95760.91
2022-12-24T23:25:21.685Z,95750.19
2022-12-24T23:27:50.257Z,95765.78
2022-12-24T23:30:18.714Z,95746.22
2022-12-24T23:32:47.260Z,95743.31
2022-12-24T23:35:15.589Z,95755.06
2022-12-24T23:37:45.433Z,95659.16
2022-12-24T23:40:16.396Z,95750.69
2022-12-24T23:42:44.745Z,95737.88
2022-12-24T23:45:13.529Z,95741.06
2022-12-24T23:47:41.919Z,95725.47
2022-12-24T23:50:11.864Z,95737.25
2022-12-24T23:52:40.276Z,95736.09
2022-12-24T23:55:10.364Z,95736.59
2022-12-24T23:57:38.857Z,95736.53
